Trenton, NJ

9:28 AM EST on November 26, 2014 (GMT -0500)
McGuire Air Force Base | Change Station
CLOSE
Current Station
Airport
Location: McGuire AFB,
Elevation: 135 ft
Nearby Weather Stations
Active Advisory: Winter Weather Advisory

Elev 135 ft 40.02 °N, 74.59 °W | Updated 8 minutes ago

Rain
Rain
37 °F
Feels Like 29 °F
N
14
Wind Variable Wind from North

Today
High -- | Low -- °F
--% Chance of Precip.
Yesterday
High -- | Low -- °F
Precip. -- in
6:57 AM 4:35 PM
Waxing Crescent, 20% visible
Pressure 30.06 in
Visibility 2.5 miles
Clouds Mostly Cloudy 400 ft
Overcast 3900 ft
Windchill 29 °F
Dew Point 37 °F
Humidity 100%
Rainfall 0.17 in
Snow Depth Not available.
UV 0 out of 12
Pollen .10 out of 12
Air Quality Not available.
Flu Activity Not available.
SPECI KWRI 261420Z 01012KT 2 1/2SM +RAPL BR BKN004 OVC039 03/03 A3006 RMK AO2A VIS 2 1/2V3 CIG 005V038 BKN V SCT

More Conditions Fewer Conditions

Pressure 30.06 in
Visibility 2.5 miles
Clouds Mostly Cloudy 400 ft
Overcast 3900 ft
Windchill 29 °F
Dew Point 37 °F
Humidity 100%
Rainfall 0.17 in
Snow Depth Not available.
UV 0 out of 12
Pollen .10 out of 12
Air Quality Not available.
Flu Activity Not available.
SPECI KWRI 261420Z 01012KT 2 1/2SM +RAPL BR BKN004 OVC039 03/03 A3006 RMK AO2A VIS 2 1/2V3 CIG 005V038 BKN V SCT

More Conditions Fewer Conditions

Nowcast | as of 8:56 am EST on November 26, 2014

Light to moderate rain will continue across the area through the morning hours, with periods of heavier rain possible. Some sleet may mix in as well. Temperatures in the upper 30s to lower 40s now are expected to drop into the mid to upper 30s through the morning hours. Northeast winds around 10 to 15 mph with gusts around 20 mph will continue as well. Drivers are urged to use caution and be alert for changing weather conditions and roadway conditions.

×

10-Day Weather Forecast

Almanac

Astronomy

Nov. 26, 2014 Rise Set
Actual Time
Civil Twilight
Nautical Twilight
Astronomical Twilight
Moon
Length of Visible Light
Length of Day
Tomorrow will be .
, % of the Moon is Illuminated

Today's Extremes

State Highs State Lows

Community

WunderPhotos

Upload Photos

1,773,752 photos uploaded!

WunderBlogs® & News

Nearby

Air Quality

  Air Quality AQ Index Pollutant
Not available.

Snow Depth

Station Depth Elevation

Earthquake Activity

City Distance Mag. Time & Date
Minimum magnitude displayed is 2.5.

Coastal Water Temperatures

Place Temperature

Nearby Weather Stations